Враца, Bulgaria

19 01, 2017 23:29 EET (GMT +0200)
Unnamed Road | | Change Station

Elev 1361 ft 42.94 °N, 23.67 °E | Updated 3 minutes ago

Сняг
Сняг
19.6 °F
Feels Like 20 °F
N
0.0
Вятър Променлива Вятър from Северен
Gusts 0.6 mph

Днес
High -- | Low -- °F
--% Chance of Precip.
Yesterday
High -- | Low -- °F
Precip. -- инчове
Атм. налягане 30.48 инчове
Видимост 4.3 мили
Облаци Облачно 2100 ft
Температура с отчитане на вятъра 20 °F
Точка на оросяване 16 °F
Влажност 87%
Rainfall 0.00 инчове
Snow Depth Not available.
7:52 AM 5:20 PM
След пълнолуние, 50% visible
METAR LBSF 192100Z 00000KT 7000 -SN OVC021 M05/M06 Q1032 R99/29//95 TEMPO 4000 SN
Атм. налягане 30.48 инчове
Видимост 4.3 мили
Облаци Облачно 2100 ft
Температура с отчитане на вятъра 20 °F
Точка на оросяване 16 °F
Влажност 87%
Rainfall 0.00 инчове
Snow Depth Not available.
7:52 AM 5:20 PM
След пълнолуние, 50% visible
METAR LBSF 192100Z 00000KT 7000 -SN OVC021 M05/M06 Q1032 R99/29//95 TEMPO 4000 SN

Get Your Daily Forecast Email!

Thanks for signing up!

Be on the lookout for a verification email in your inbox.

You'll start receiving the daily forecast at 8 AM.

×

10-Day Weather Forecast

×

Almanac

Астрономия

Jan. 19, 2017 Rise Set
Actual Time
Civil Twilight
Nautical Twilight
Astronomical Twilight
Moon
Length Of Visible Light
Продължителност на деня
Tomorrow will be .
, % of the Moon is Illuminated

Today's Extremes

Country Highs Country Lows

Community

WunderPhotos

Upload Photos

1,962,540 photos uploaded!

WunderBlog® & News

Nearby

Качество на въздуха

  Качество на въздуха AQ Index Pollutant
Not available.

Snow Depth

Station Depth Elevation

Earthquake Activity

City Distance Mag. Time & Date
Minimum magnitude displayed is 2.5.

Coastal Water Temperatures

Град Температура

Stations

Nearby Weather Stations

Station Location Temp Температура с отчитане на вятъра Точка на оросяване Влажност Вятър Precip. Elev Последна справка Type